createdAt,value
2022-09-14T00:01:14.386Z,15.94
2022-09-14T00:03:42.882Z,15.85
2022-09-14T00:06:12.448Z,15.78
2022-09-14T00:08:40.972Z,15.75
2022-09-14T00:11:12.858Z,15.76
2022-09-14T00:13:42.464Z,15.74
2022-09-14T00:16:21.077Z,15.74
2022-09-14T00:18:51.963Z,15.71
2022-09-14T00:21:20.484Z,15.68
2022-09-14T00:23:48.277Z,15.69
2022-09-14T00:26:21.278Z,15.62
2022-09-14T00:28:51.236Z,15.69
2022-09-14T00:31:20.414Z,15.66
2022-09-14T00:33:50.497Z,15.70
2022-09-14T00:36:20.489Z,15.69
2022-09-14T00:38:49.172Z,15.59
2022-09-14T00:41:19.846Z,15.57
2022-09-14T00:43:59.834Z,15.60
2022-09-14T00:46:29.151Z,15.62
2022-09-14T00:49:00.123Z,15.62
2022-09-14T00:51:31.031Z,15.72
2022-09-14T00:53:58.790Z,15.79
2022-09-14T00:56:28.098Z,15.85
2022-09-14T00:58:59.314Z,15.86
2022-09-14T01:01:27.248Z,15.85
2022-09-14T01:03:55.053Z,15.80
2022-09-14T01:06:35.408Z,15.79
2022-09-14T01:09:19.822Z,15.71
2022-09-14T01:12:12.871Z,15.64
2022-09-14T01:14:50.196Z,15.60
2022-09-14T01:17:26.762Z,15.57
2022-09-14T01:20:19.680Z,15.65
2022-09-14T01:22:52.903Z,15.67
2022-09-14T01:25:46.643Z,15.62
2022-09-14T01:28:22.765Z,15.60
2022-09-14T01:30:52.548Z,15.56
2022-09-14T01:33:26.128Z,15.56
2022-09-14T01:35:59.110Z,15.62
2022-09-14T01:38:34.538Z,15.65
2022-09-14T01:41:07.127Z,15.65
2022-09-14T01:43:40.769Z,15.68
2022-09-14T01:46:14.486Z,15.65
2022-09-14T01:48:48.246Z,15.58
2022-09-14T01:51:21.209Z,15.57
2022-09-14T01:53:53.811Z,15.54
2022-09-14T01:56:25.564Z,15.56
2022-09-14T01:58:58.196Z,15.55
2022-09-14T02:01:30.310Z,15.52
2022-09-14T02:04:02.785Z,15.56
2022-09-14T02:06:37.068Z,15.53
2022-09-14T02:09:07.136Z,15.57
2022-09-14T02:11:35.087Z,15.59
2022-09-14T02:14:04.269Z,15.63
2022-09-14T02:16:34.406Z,15.67
2022-09-14T02:19:02.120Z,15.70
2022-09-14T02:21:31.574Z,15.66
2022-09-14T02:24:02.047Z,15.65
2022-09-14T02:26:30.276Z,15.69
2022-09-14T02:28:58.656Z,15.65
2022-09-14T02:31:38.896Z,15.65
2022-09-14T02:34:16.683Z,15.75
2022-09-14T02:36:50.503Z,15.76
2022-09-14T02:39:28.199Z,15.75
2022-09-14T02:42:09.898Z,15.70
2022-09-14T02:44:50.064Z,15.66
2022-09-14T02:47:26.774Z,15.67
2022-09-14T02:50:01.469Z,15.65
2022-09-14T02:52:34.603Z,15.64
2022-09-14T02:55:08.603Z,15.66
2022-09-14T02:58:08.534Z,15.64
2022-09-14T03:00:40.300Z,15.64
2022-09-14T03:03:11.856Z,15.64
2022-09-14T03:05:40.133Z,15.68
2022-09-14T03:08:10.228Z,15.60
2022-09-14T03:10:41.044Z,15.58
2022-09-14T03:13:08.741Z,15.62
2022-09-14T03:15:37.024Z,15.70
2022-09-14T03:18:04.934Z,15.71
2022-09-14T03:20:35.129Z,15.65
2022-09-14T03:23:07.277Z,15.65
2022-09-14T03:25:38.094Z,15.63
2022-09-14T03:28:06.829Z,15.69
2022-09-14T03:30:35.155Z,15.66
2022-09-14T03:33:03.257Z,15.62
2022-09-14T03:35:32.076Z,15.67
2022-09-14T03:38:03.034Z,15.69
2022-09-14T03:40:31.266Z,15.70
2022-09-14T03:42:59.085Z,15.77
2022-09-14T03:45:26.884Z,15.89
2022-09-14T03:47:54.870Z,16.00
2022-09-14T03:50:22.661Z,16.13
2022-09-14T03:52:50.352Z,16.27
2022-09-14T03:55:19.642Z,16.35
2022-09-14T03:57:47.345Z,16.45
2022-09-14T04:00:16.130Z,16.59
2022-09-14T04:02:44.616Z,16.66
2022-09-14T04:05:13.314Z,16.67
2022-09-14T04:07:41.055Z,16.84
2022-09-14T04:10:09.617Z,16.94
2022-09-14T04:12:40.007Z,16.98
2022-09-14T04:15:09.020Z,17.05
2022-09-14T04:17:39.733Z,17.12
2022-09-14T04:20:08.816Z,17.17
2022-09-14T04:22:36.482Z,17.19
2022-09-14T04:25:05.028Z,17.23
2022-09-14T04:27:32.737Z,17.29
2022-09-14T04:30:02.006Z,17.31
2022-09-14T04:32:34.027Z,17.34
2022-09-14T04:35:02.269Z,17.33
2022-09-14T04:37:32.522Z,17.34
2022-09-14T04:40:00.311Z,17.37
2022-09-14T04:42:28.062Z,17.41
2022-09-14T04:44:55.769Z,17.37
2022-09-14T04:47:24.850Z,17.42
2022-09-14T04:49:52.495Z,17.46
2022-09-14T04:52:21.344Z,17.47
2022-09-14T04:54:49.015Z,17.52
2022-09-14T04:57:16.673Z,17.55
2022-09-14T04:59:44.314Z,17.60
2022-09-14T05:02:12.021Z,17.67
2022-09-14T05:04:42.516Z,17.72
2022-09-14T05:07:10.171Z,17.78
2022-09-14T05:09:37.855Z,17.83
2022-09-14T05:12:05.888Z,17.88
2022-09-14T05:14:33.624Z,17.91
2022-09-14T05:17:03.098Z,17.94
2022-09-14T05:19:30.923Z,17.97
2022-09-14T05:21:59.968Z,18.03
2022-09-14T05:24:27.925Z,18.13
2022-09-14T05:26:59.570Z,18.24
2022-09-14T05:29:29.565Z,18.36
2022-09-14T05:31:59.935Z,18.49
2022-09-14T05:34:29.898Z,18.59
2022-09-14T05:36:57.546Z,18.65
2022-09-14T05:39:27.069Z,18.70
2022-09-14T05:41:56.631Z,18.76
2022-09-14T05:44:24.319Z,18.78
2022-09-14T05:46:52.522Z,18.87
2022-09-14T05:49:20.239Z,18.97
2022-09-14T05:51:47.922Z,19.03
2022-09-14T05:54:16.186Z,19.08
2022-09-14T05:56:45.379Z,19.15
2022-09-14T05:59:13.189Z,19.16
2022-09-14T06:01:41.087Z,19.21
2022-09-14T06:04:10.948Z,19.26
2022-09-14T06:06:38.744Z,19.33
2022-09-14T06:09:06.485Z,19.34
2022-09-14T06:11:37.205Z,19.28
2022-09-14T06:14:07.395Z,19.18
2022-09-14T06:16:35.754Z,19.17
2022-09-14T06:19:03.534Z,19.20
2022-09-14T06:21:33.178Z,19.18
2022-09-14T06:24:01.459Z,19.16
2022-09-14T06:26:29.308Z,19.12
2022-09-14T06:28:57.205Z,19.06
2022-09-14T06:31:26.371Z,18.97
2022-09-14T06:33:54.952Z,19.04
2022-09-14T06:36:24.531Z,19.06
2022-09-14T06:38:52.973Z,19.05
2022-09-14T06:41:23.434Z,19.11
2022-09-14T06:43:52.258Z,19.14
2022-09-14T06:46:22.026Z,19.26
2022-09-14T06:48:53.970Z,19.35
2022-09-14T06:51:24.158Z,19.41
2022-09-14T06:53:53.853Z,19.47
2022-09-14T06:56:22.107Z,19.51
2022-09-14T06:58:50.597Z,19.57
2022-09-14T07:01:19.827Z,19.60
2022-09-14T07:03:48.795Z,19.62
2022-09-14T07:06:21.100Z,19.61
2022-09-14T07:08:49.882Z,19.62
2022-09-14T07:11:19.332Z,19.60
2022-09-14T07:13:48.212Z,19.59
2022-09-14T07:16:17.304Z,19.62
2022-09-14T07:18:45.353Z,19.68
2022-09-14T07:21:15.383Z,19.70
2022-09-14T07:23:45.869Z,19.77
2022-09-14T07:26:17.137Z,19.88
2022-09-14T07:28:47.218Z,19.98
2022-09-14T07:31:18.800Z,20.11
2022-09-14T07:33:47.017Z,20.25
2022-09-14T07:36:15.884Z,20.32
2022-09-14T07:38:53.222Z,20.49
2022-09-14T07:41:21.859Z,20.54
2022-09-14T07:43:51.042Z,20.61
2022-09-14T07:46:19.286Z,20.71
2022-09-14T07:48:47.595Z,20.81
2022-09-14T07:51:16.137Z,20.99
2022-09-14T07:53:45.606Z,21.19
2022-09-14T07:56:17.241Z,21.34
2022-09-14T07:58:45.134Z,21.49
2022-09-14T08:01:14.944Z,21.71
2022-09-14T08:03:44.615Z,21.89
2022-09-14T08:06:14.379Z,22.14
2022-09-14T08:08:44.253Z,22.28
2022-09-14T08:11:15.400Z,22.43
2022-09-14T08:13:44.504Z,22.65
2022-09-14T08:16:13.892Z,22.84
2022-09-14T08:18:41.798Z,23.06
2022-09-14T08:21:12.517Z,23.24
2022-09-14T08:23:41.110Z,23.33
2022-09-14T08:26:10.732Z,23.34
2022-09-14T08:28:40.846Z,23.43
2022-09-14T08:31:10.613Z,23.53
2022-09-14T08:33:40.584Z,23.72
2022-09-14T08:36:10.403Z,23.91
2022-09-14T08:38:38.473Z,23.95
2022-09-14T08:41:16.616Z,24.05
2022-09-14T08:43:46.007Z,24.15
2022-09-14T08:46:28.283Z,24.36
2022-09-14T08:48:56.188Z,24.52
2022-09-14T08:51:24.368Z,24.69
2022-09-14T08:53:53.584Z,24.87
2022-09-14T08:56:26.107Z,24.96
2022-09-14T08:59:09.864Z,25.15
2022-09-14T09:01:45.531Z,25.18
2022-09-14T09:04:34.826Z,25.14
2022-09-14T09:07:11.330Z,25.02
2022-09-14T09:09:44.381Z,24.88
2022-09-14T09:12:18.309Z,24.88
2022-09-14T09:14:52.573Z,24.88
2022-09-14T09:17:26.604Z,25.13
2022-09-14T09:20:05.240Z,25.47
2022-09-14T09:22:40.837Z,25.70
2022-09-14T09:25:17.099Z,25.64
2022-09-14T09:27:44.960Z,25.35
2022-09-14T09:30:16.284Z,25.47
2022-09-14T09:32:44.454Z,25.30
2022-09-14T09:35:16.654Z,25.14
2022-09-14T09:37:44.344Z,25.22
2022-09-14T09:40:17.919Z,25.18
2022-09-14T09:43:07.616Z,25.12
2022-09-14T09:45:57.259Z,24.93
2022-09-14T09:48:29.621Z,24.94
2022-09-14T09:51:03.520Z,24.74
2022-09-14T09:53:33.819Z,24.61
2022-09-14T09:56:02.904Z,24.98
2022-09-14T09:58:34.583Z,25.42
2022-09-14T10:01:11.526Z,25.73
2022-09-14T10:03:41.617Z,25.74
2022-09-14T10:06:11.882Z,25.62
2022-09-14T10:08:44.791Z,25.71
2022-09-14T10:11:31.462Z,25.74
2022-09-14T10:13:59.657Z,25.96
2022-09-14T10:16:36.007Z,26.22
2022-09-14T10:19:04.404Z,27.28
2022-09-14T10:21:32.397Z,28.17
2022-09-14T10:24:17.174Z,28.53
2022-09-14T10:26:45.125Z,28.13
2022-09-14T10:29:35.072Z,27.74
2022-09-14T10:32:17.765Z,27.15
2022-09-14T10:34:45.674Z,26.87
2022-09-14T10:37:24.398Z,26.64
2022-09-14T10:40:00.454Z,26.07
2022-09-14T10:42:35.349Z,25.93
2022-09-14T10:45:22.204Z,25.96
2022-09-14T10:48:28.707Z,26.17
2022-09-14T10:51:14.431Z,26.33
2022-09-14T10:53:51.837Z,26.10
2022-09-14T10:56:25.550Z,26.11
2022-09-14T10:59:15.729Z,26.03
2022-09-14T11:02:05.409Z,26.11
2022-09-14T11:04:56.235Z,26.34
2022-09-14T11:07:33.973Z,26.35
2022-09-14T11:10:12.318Z,26.88
2022-09-14T11:12:46.983Z,27.13
2022-09-14T11:15:23.925Z,27.55
2022-09-14T11:18:06.274Z,28.21
2022-09-14T11:20:44.612Z,28.94
2022-09-14T11:23:27.155Z,29.41
2022-09-14T11:25:59.178Z,29.81
2022-09-14T11:28:31.046Z,29.63
2022-09-14T11:31:12.002Z,29.00
2022-09-14T11:33:44.659Z,28.14
2022-09-14T11:36:19.162Z,28.35
2022-09-14T11:38:53.320Z,28.70
2022-09-14T11:41:27.345Z,29.12
2022-09-14T11:44:01.427Z,29.50
2022-09-14T11:46:34.350Z,29.48
2022-09-14T11:49:10.989Z,29.74
2022-09-14T11:51:48.418Z,29.26
2022-09-14T11:54:22.927Z,29.18
2022-09-14T11:56:55.792Z,28.95
2022-09-14T11:59:51.356Z,28.79
2022-09-14T12:03:13.019Z,28.45
2022-09-14T12:05:43.404Z,27.97
2022-09-14T12:08:44.294Z,28.07
2022-09-14T12:11:28.765Z,27.76
2022-09-14T12:14:23.209Z,27.96
2022-09-14T12:20:37.627Z,27.99
2022-09-14T12:23:22.183Z,27.95
2022-09-14T12:26:03.679Z,27.68
2022-09-14T12:28:47.818Z,27.67
2022-09-14T12:31:33.232Z,27.57
2022-09-14T12:34:22.769Z,27.50
2022-09-14T12:37:28.198Z,27.62
2022-09-14T12:40:32.771Z,27.60
2022-09-14T12:43:51.026Z,27.70
2022-09-14T12:46:39.816Z,27.76
2022-09-14T12:49:30.228Z,27.55
2022-09-14T12:52:03.510Z,27.45
2022-09-14T12:54:42.906Z,27.07
2022-09-14T12:57:23.519Z,26.78
2022-09-14T12:59:59.782Z,26.55
2022-09-14T13:03:10.487Z,26.49
2022-09-14T13:05:38.300Z,26.34
2022-09-14T13:08:11.064Z,26.35
2022-09-14T13:10:45.827Z,26.08
2022-09-14T13:13:18.077Z,25.96
2022-09-14T13:15:54.315Z,25.78
2022-09-14T13:18:32.883Z,25.84
2022-09-14T13:21:03.016Z,25.89
2022-09-14T13:23:33.965Z,25.92
2022-09-14T13:26:09.390Z,25.96
2022-09-14T13:28:37.086Z,25.95
2022-09-14T13:31:06.158Z,25.99
2022-09-14T13:33:35.386Z,25.68
2022-09-14T13:36:05.243Z,25.47
2022-09-14T13:38:36.280Z,25.45
2022-09-14T13:41:09.349Z,25.38
2022-09-14T13:43:37.372Z,25.42
2022-09-14T13:46:08.385Z,25.62
2022-09-14T13:48:40.222Z,25.73
2022-09-14T13:51:08.995Z,25.73
2022-09-14T13:53:42.200Z,25.55
2022-09-14T13:56:21.500Z,25.64
2022-09-14T13:58:50.597Z,25.58
2022-09-14T14:01:27.685Z,25.40
2022-09-14T14:03:58.388Z,25.24
2022-09-14T14:06:28.445Z,25.16
2022-09-14T14:09:01.254Z,24.88
2022-09-14T14:11:37.785Z,24.76
2022-09-14T14:14:21.440Z,24.65
2022-09-14T14:17:26.693Z,24.49
2022-09-14T14:19:57.821Z,24.34
2022-09-14T14:22:28.448Z,24.33
2022-09-14T14:25:14.397Z,24.23
2022-09-14T14:27:46.171Z,24.07
2022-09-14T14:30:16.365Z,24.09
2022-09-14T14:32:44.431Z,24.10
2022-09-14T14:35:22.682Z,24.02
2022-09-14T14:37:51.220Z,24.01
2022-09-14T14:40:20.635Z,23.97
2022-09-14T14:42:49.129Z,23.98
2022-09-14T14:45:19.229Z,23.98
2022-09-14T14:47:48.152Z,23.88
2022-09-14T14:50:21.380Z,23.73
2022-09-14T14:52:49.173Z,23.67
2022-09-14T14:55:18.716Z,23.61
2022-09-14T14:57:46.507Z,23.57
2022-09-14T15:00:17.310Z,23.50
2022-09-14T15:02:45.476Z,23.46
2022-09-14T15:05:14.444Z,23.41
2022-09-14T15:07:43.526Z,23.38
2022-09-14T15:10:17.258Z,23.38
2022-09-14T15:12:45.354Z,23.33
2022-09-14T15:15:14.353Z,23.29
2022-09-14T15:17:42.499Z,23.24
2022-09-14T15:20:11.291Z,23.22
2022-09-14T15:22:39.258Z,23.20
2022-09-14T15:25:09.853Z,23.19
2022-09-14T15:27:38.777Z,23.19
2022-09-14T15:30:08.439Z,23.16
2022-09-14T15:32:36.566Z,23.15
2022-09-14T15:35:04.754Z,23.14
2022-09-14T15:37:32.442Z,22.97
2022-09-14T15:40:00.269Z,22.37
2022-09-14T15:42:29.515Z,21.92
2022-09-14T15:44:57.230Z,21.74
2022-09-14T15:47:24.987Z,21.50
2022-09-14T15:49:52.792Z,20.69
2022-09-14T15:52:20.851Z,20.05
2022-09-14T15:54:52.206Z,19.69
2022-09-14T15:57:19.904Z,19.46
2022-09-14T15:59:48.979Z,19.35
2022-09-14T16:02:20.187Z,19.20
2022-09-14T16:04:47.972Z,19.10
2022-09-14T16:07:15.703Z,19.01
2022-09-14T16:09:43.762Z,18.92
2022-09-14T16:12:13.466Z,18.82
2022-09-14T16:14:41.313Z,18.77
2022-09-14T16:17:11.305Z,18.73
2022-09-14T16:19:42.144Z,18.71
2022-09-14T16:22:10.020Z,18.73
2022-09-14T16:24:37.705Z,18.68
2022-09-14T16:27:05.817Z,18.59
2022-09-14T16:29:33.533Z,18.50
2022-09-14T16:32:01.318Z,18.49
2022-09-14T16:34:31.143Z,18.50
2022-09-14T16:36:59.118Z,18.57
2022-09-14T16:39:28.563Z,18.61
2022-09-14T16:41:57.277Z,18.78
2022-09-14T16:44:27.732Z,18.89
2022-09-14T16:46:57.598Z,18.88
2022-09-14T16:49:27.967Z,18.80
2022-09-14T16:52:00.630Z,18.75
2022-09-14T16:54:29.811Z,18.90
2022-09-14T16:56:59.338Z,19.00
2022-09-14T16:59:27.635Z,18.96
2022-09-14T17:01:55.747Z,18.91
2022-09-14T17:04:24.839Z,18.85
2022-09-14T17:06:55.123Z,18.68
2022-09-14T17:09:25.976Z,18.59
2022-09-14T17:11:55.103Z,18.57
2022-09-14T17:14:28.301Z,18.46
2022-09-14T17:16:56.429Z,18.29
2022-09-14T17:19:24.231Z,18.26
2022-09-14T17:21:52.521Z,18.18
2022-09-14T17:24:21.670Z,18.12
2022-09-14T17:26:50.988Z,18.16
2022-09-14T17:29:19.422Z,18.13
2022-09-14T17:31:47.391Z,18.06
2022-09-14T17:34:17.125Z,18.07
2022-09-14T17:36:45.575Z,18.06
2022-09-14T17:39:14.240Z,18.02
2022-09-14T17:41:43.694Z,17.96
2022-09-14T17:44:16.001Z,17.89
2022-09-14T17:46:51.943Z,17.90
2022-09-14T17:49:20.703Z,17.84
2022-09-14T17:51:49.138Z,17.81
2022-09-14T17:54:17.688Z,17.81
2022-09-14T17:56:45.453Z,17.80
2022-09-14T17:59:16.386Z,17.78
2022-09-14T18:01:44.289Z,17.81
2022-09-14T18:04:14.004Z,17.83
2022-09-14T18:06:43.559Z,17.86
2022-09-14T18:09:17.620Z,17.87
2022-09-14T18:11:46.264Z,17.88
2022-09-14T18:14:16.773Z,17.85
2022-09-14T18:16:45.680Z,17.81
2022-09-14T18:19:14.025Z,17.78
2022-09-14T18:21:42.258Z,17.78
2022-09-14T18:24:11.790Z,17.82
2022-09-14T18:26:39.476Z,17.82
2022-09-14T18:29:08.483Z,17.83
2022-09-14T18:31:39.383Z,17.82
2022-09-14T18:34:08.364Z,17.78
2022-09-14T18:36:37.001Z,17.82
2022-09-14T18:39:04.971Z,17.80
2022-09-14T18:41:34.102Z,17.83
2022-09-14T18:44:03.295Z,17.80
2022-09-14T18:46:31.885Z,17.73
2022-09-14T18:49:02.074Z,17.73
2022-09-14T18:51:32.301Z,17.73
2022-09-14T18:54:03.212Z,17.71
2022-09-14T18:56:33.198Z,17.68
2022-09-14T18:59:01.687Z,17.70
2022-09-14T19:01:30.061Z,17.67
2022-09-14T19:03:58.298Z,17.61
2022-09-14T19:06:27.513Z,17.64
2022-09-14T19:08:55.529Z,17.62
2022-09-14T19:11:25.220Z,17.64
2022-09-14T19:13:57.076Z,17.59
2022-09-14T19:16:25.101Z,17.51
2022-09-14T19:18:52.967Z,17.48
2022-09-14T19:21:24.022Z,17.46
2022-09-14T19:24:00.483Z,17.40
2022-09-14T19:26:31.146Z,17.32
2022-09-14T19:29:01.057Z,17.27
2022-09-14T19:31:30.589Z,17.22
2022-09-14T19:33:58.997Z,17.16
2022-09-14T19:36:27.341Z,17.14
2022-09-14T19:38:57.894Z,17.12
2022-09-14T19:41:26.355Z,17.19
2022-09-14T19:43:54.168Z,17.24
2022-09-14T19:46:23.982Z,17.23
2022-09-14T19:48:53.376Z,17.20
2022-09-14T19:51:22.993Z,17.15
2022-09-14T19:53:52.243Z,17.03
2022-09-14T19:56:25.338Z,16.97
2022-09-14T19:58:55.699Z,16.90
2022-09-14T20:01:25.473Z,16.86
2022-09-14T20:03:53.885Z,16.89
2022-09-14T20:06:23.686Z,16.74
2022-09-14T20:08:53.886Z,16.65
2022-09-14T20:11:24.504Z,16.59
2022-09-14T20:13:55.160Z,16.57
2022-09-14T20:16:25.653Z,16.65
2022-09-14T20:18:53.775Z,16.54
2022-09-14T20:21:25.869Z,16.60
2022-09-14T20:24:17.943Z,16.61
2022-09-14T20:26:48.832Z,16.62
2022-09-14T20:29:17.612Z,16.68
2022-09-14T20:31:45.578Z,16.77
2022-09-14T20:34:13.750Z,16.89
2022-09-14T20:36:41.444Z,16.97
2022-09-14T20:39:09.890Z,16.99
2022-09-14T20:41:37.743Z,17.07
2022-09-14T20:44:07.181Z,17.14
2022-09-14T20:46:38.416Z,17.13
2022-09-14T20:49:10.290Z,17.06
2022-09-14T20:51:38.943Z,17.10
2022-09-14T20:54:08.147Z,17.00
2022-09-14T20:56:37.042Z,16.87
2022-09-14T20:59:09.542Z,16.78
2022-09-14T21:01:39.703Z,16.77
2022-09-14T21:04:09.702Z,16.73
2022-09-14T21:06:39.372Z,16.76
2022-09-14T21:09:07.951Z,16.69
2022-09-14T21:11:35.982Z,16.60
2022-09-14T21:14:04.107Z,16.56
2022-09-14T21:16:36.999Z,16.46
2022-09-14T21:19:06.932Z,16.42
2022-09-14T21:21:35.404Z,16.47
2022-09-14T21:24:04.839Z,16.51
2022-09-14T21:26:34.261Z,16.52
2022-09-14T21:29:05.092Z,16.66
2022-09-14T21:31:36.262Z,16.85
2022-09-14T21:34:06.149Z,17.00
2022-09-14T21:36:36.486Z,17.15
2022-09-14T21:39:08.644Z,17.28
2022-09-14T21:41:37.581Z,17.40
2022-09-14T21:44:08.996Z,17.50
2022-09-14T21:46:38.699Z,17.57
2022-09-14T21:49:06.540Z,17.62
2022-09-14T21:51:36.441Z,17.69
2022-09-14T21:54:06.749Z,17.70
2022-09-14T21:56:37.715Z,17.76
2022-09-14T21:59:07.332Z,17.79
2022-09-14T22:01:40.497Z,17.89
2022-09-14T22:04:09.251Z,17.93
2022-09-14T22:06:37.028Z,17.95
2022-09-14T22:09:07.716Z,18.01
2022-09-14T22:11:38.690Z,18.02
2022-09-14T22:14:09.860Z,18.03
2022-09-14T22:16:39.971Z,18.03
2022-09-14T22:19:09.757Z,18.02
2022-09-14T22:21:39.416Z,17.99
2022-09-14T22:24:11.178Z,17.98
2022-09-14T22:26:40.110Z,17.92
2022-09-14T22:29:09.642Z,17.93
2022-09-14T22:31:40.953Z,17.85
2022-09-14T22:34:09.418Z,17.82
2022-09-14T22:36:37.376Z,17.79
2022-09-14T22:39:05.684Z,17.74
2022-09-14T22:41:34.435Z,17.68
2022-09-14T22:44:03.144Z,17.59
2022-09-14T22:46:31.494Z,17.51
2022-09-14T22:49:00.579Z,17.49
2022-09-14T22:51:29.851Z,17.45
2022-09-14T22:53:57.889Z,17.37
2022-09-14T22:56:31.185Z,17.29
2022-09-14T22:58:59.520Z,17.26
2022-09-14T23:06:04.934Z,16.82
2022-09-14T23:08:35.862Z,16.78
2022-09-14T23:11:04.894Z,16.76
2022-09-14T23:13:35.457Z,16.76
2022-09-14T23:16:09.313Z,16.81
2022-09-14T23:18:37.004Z,16.77
2022-09-14T23:21:06.799Z,16.83
2022-09-14T23:23:34.848Z,16.92
2022-09-14T23:26:04.891Z,16.96
2022-09-14T23:28:32.682Z,17.00
2022-09-14T23:31:01.011Z,17.03
2022-09-14T23:33:29.646Z,17.08
2022-09-14T23:35:57.833Z,17.09
2022-09-14T23:38:40.182Z,17.10
2022-09-14T23:41:07.950Z,17.12
2022-09-14T23:43:35.702Z,17.14
2022-09-14T23:46:03.564Z,17.13
2022-09-14T23:48:31.301Z,17.17
2022-09-14T23:51:00.015Z,17.21
2022-09-14T23:53:29.421Z,17.28
2022-09-14T23:55:57.624Z,17.33
2022-09-14T23:58:25.882Z,17.35
